Time;durP1;ratioP1;P1;durP2;ratioP2;P2;SDS_P1;SDS_P2;PMS_P1;PMS_P2;Temp;Humidity;BMP_temperature;BMP_pressure;BME280_temperature;BME280_humidity;BME280_pressure;Samples;Min_cycle;Max_cycle;Signal;HPM_P1;HPM_P2
2021/12/05 00:20:40;;;;;;;5.57;2.60;;;;;;;;;;5060973;28;20233;-80
2021/12/05 00:23:11;;;;;;;3.07;2.17;;;;;;;;;;5060017;28;20228;-79
2021/12/05 00:25:40;;;;;;;4.60;2.60;;;;;;;;;;5057764;28;20343;-80
2021/12/05 00:28:34;;;;;;;5.53;2.40;;;;;;;;;;5065947;28;20240;-79
2021/12/05 00:31:22;;;;;;;4.40;2.73;;;;;;;;;;5062568;28;20316;-78
2021/12/05 00:40:07;;;;;;;8.47;3.17;;;;;;;;;;5061913;28;20228;-80
2021/12/05 00:48:44;;;;;;;4.97;2.67;;;;;;;;;;5062437;28;20205;-79
2021/12/05 00:51:41;;;;;;;3.87;2.70;;;;;;;;;;5062218;28;20228;-79
2021/12/05 00:57:30;;;;;;;4.43;2.30;;;;;;;;;;5050005;28;20212;-79
2021/12/05 01:00:11;;;;;;;2.00;1.90;;;;;;;;;;5060650;28;20230;-79
2021/12/05 01:02:52;;;;;;;4.07;2.50;;;;;;;;;;5044601;28;20209;-79
2021/12/05 01:06:10;;;;;;;2.30;2.10;;;;;;;;;;5040510;28;20292;-79
2021/12/05 01:08:45;;;;;;;5.87;2.77;;;;;;;;;;5043213;28;20235;-79
2021/12/05 01:11:28;;;;;;;6.40;2.80;;;;;;;;;;5040570;28;20796;-79
2021/12/05 01:14:11;;;;;;;7.77;3.10;;;;;;;;;;5041564;28;20231;-79
2021/12/05 01:16:39;;;;;;;6.93;2.73;;;;;;;;;;5043379;28;20756;-80
2021/12/05 01:19:08;;;;;;;7.57;2.70;;;;;;;;;;5063175;28;20206;-79
2021/12/05 01:21:36;;;;;;;8.13;3.00;;;;;;;;;;5066705;28;20205;-79
2021/12/05 01:24:11;;;;;;;4.27;2.40;;;;;;;;;;5066305;28;20233;-79
2021/12/05 01:26:45;;;;;;;5.80;2.63;;;;;;;;;;5063403;28;20232;-78
2021/12/05 01:29:27;;;;;;;6.37;2.27;;;;;;;;;;5057557;28;20208;-78
2021/12/05 01:32:03;;;;;;;1.93;1.83;;;;;;;;;;5057302;28;20279;-78
2021/12/05 01:34:42;;;;;;;4.33;2.47;;;;;;;;;;5055807;28;20324;-78
2021/12/05 01:37:15;;;;;;;4.30;2.30;;;;;;;;;;5056531;28;20283;-78
2021/12/05 01:40:00;;;;;;;1.80;1.70;;;;;;;;;;5054917;28;20237;-78
2021/12/05 01:45:50;;;;;;;6.97;2.73;;;;;;;;;;4993224;28;20249;-77
2021/12/05 01:48:56;;;;;;;3.80;2.40;;;;;;;;;;5033625;28;20246;-78
2021/12/05 01:54:42;;;;;;;4.50;2.33;;;;;;;;;;5052553;28;20622;-78
2021/12/05 01:57:33;;;;;;;3.17;2.67;;;;;;;;;;5052909;28;20575;-77
2021/12/05 02:11:27;;;;;;;3.87;2.60;;;;;;;;;;5032902;28;20280;-78
2021/12/05 02:29:26;;;;;;;4.30;2.60;;;;;;;;;;5052695;28;20283;-78
2021/12/05 02:31:12;;;;;;;5.30;2.63;;;;;;;;;;5008521;28;20546;-78
2021/12/05 02:33:52;;;;;;;4.93;2.63;;;;;;;;;;5033787;28;20329;-78
2021/12/05 02:39:28;;;;;;;2.47;2.10;;;;;;;;;;5031575;28;20234;-79
2021/12/05 02:41:57;;;;;;;7.03;2.40;;;;;;;;;;5050798;28;20202;-78
2021/12/05 02:44:25;;;;;;;5.70;2.10;;;;;;;;;;5052450;28;20240;-78
2021/12/05 02:46:58;;;;;;;1.77;1.67;;;;;;;;;;5053703;28;20213;-78
2021/12/05 02:49:26;;;;;;;5.70;2.33;;;;;;;;;;5055044;28;20245;-78
2021/12/05 02:51:56;;;;;;;7.53;2.70;;;;;;;;;;5057117;28;20267;-78
2021/12/05 02:54:26;;;;;;;7.70;2.07;;;;;;;;;;5056826;28;20270;-78
2021/12/05 02:56:53;;;;;;;4.57;2.50;;;;;;;;;;5057754;28;20299;-78
2021/12/05 02:59:29;;;;;;;5.10;2.30;;;;;;;;;;5056469;28;20230;-78
2021/12/05 03:02:00;;;;;;;8.70;2.30;;;;;;;;;;5048687;28;20262;-78
2021/12/05 03:04:31;;;;;;;6.03;2.73;;;;;;;;;;5057453;28;20251;-78
2021/12/05 03:07:00;;;;;;;3.83;2.10;;;;;;;;;;5057375;28;20636;-78
2021/12/05 03:09:28;;;;;;;4.30;2.33;;;;;;;;;;5055742;28;20241;-78
2021/12/05 03:11:55;;;;;;;6.50;2.00;;;;;;;;;;5056503;28;20202;-78
2021/12/05 03:14:23;;;;;;;2.33;2.10;;;;;;;;;;5055287;28;20248;-78
2021/12/05 03:16:50;;;;;;;5.27;3.20;;;;;;;;;;5056358;28;20209;-78
2021/12/05 03:19:17;;;;;;;3.37;2.23;;;;;;;;;;5056233;28;20240;-78
2021/12/05 03:21:45;;;;;;;7.07;2.37;;;;;;;;;;5055830;28;20205;-77
2021/12/05 03:24:13;;;;;;;6.60;2.80;;;;;;;;;;5055515;28;20243;-77
2021/12/05 03:26:44;;;;;;;4.40;2.53;;;;;;;;;;5055788;28;20219;-78
2021/12/05 03:29:12;;;;;;;6.83;2.70;;;;;;;;;;5055493;28;20211;-77
2021/12/05 03:31:39;;;;;;;4.03;2.50;;;;;;;;;;5056066;28;20209;-78
2021/12/05 03:34:07;;;;;;;4.03;2.73;;;;;;;;;;5055029;28;20247;-78
2021/12/05 03:36:34;;;;;;;10.33;3.30;;;;;;;;;;5054817;28;20206;-78
2021/12/05 03:39:03;;;;;;;9.67;3.27;;;;;;;;;;5055770;28;20208;-78
2021/12/05 03:41:30;;;;;;;7.03;3.83;;;;;;;;;;5056240;28;20345;-78
2021/12/05 03:43:58;;;;;;;9.07;3.83;;;;;;;;;;5055870;28;20222;-78
2021/12/05 03:46:27;;;;;;;4.40;2.57;;;;;;;;;;5048933;28;20655;-78
2021/12/05 03:48:56;;;;;;;3.23;2.60;;;;;;;;;;5040927;28;20599;-77
2021/12/05 03:51:25;;;;;;;5.73;2.73;;;;;;;;;;5044934;28;20234;-78
2021/12/05 03:53:52;;;;;;;7.53;2.87;;;;;;;;;;5042884;28;20638;-78
2021/12/05 03:56:19;;;;;;;4.30;3.33;;;;;;;;;;5034314;28;20248;-78
2021/12/05 03:58:47;;;;;;;6.70;2.87;;;;;;;;;;5035412;28;20209;-78
2021/12/05 04:01:15;;;;;;;6.27;2.53;;;;;;;;;;5041048;28;20227;-78
2021/12/05 04:03:44;;;;;;;7.30;2.43;;;;;;;;;;5054619;28;20632;-78
2021/12/05 04:06:14;;;;;;;3.23;2.53;;;;;;;;;;5054556;28;20238;-78
2021/12/05 04:08:41;;;;;;;3.63;2.70;;;;;;;;;;5055251;28;20205;-78
2021/12/05 04:11:09;;;;;;;6.80;3.03;;;;;;;;;;5054532;28;20240;-77
2021/12/05 04:13:37;;;;;;;4.93;2.67;;;;;;;;;;5054457;28;20239;-78
2021/12/05 04:16:05;;;;;;;7.33;2.60;;;;;;;;;;5053550;28;20573;-77
2021/12/05 04:18:34;;;;;;;6.60;2.47;;;;;;;;;;5052715;28;20223;-77
2021/12/05 04:21:02;;;;;;;2.50;2.10;;;;;;;;;;5052673;28;20233;-78
2021/12/05 04:23:29;;;;;;;5.47;2.17;;;;;;;;;;5048771;28;20239;-79
2021/12/05 04:25:56;;;;;;;6.47;2.80;;;;;;;;;;5036482;28;20244;-80
2021/12/05 04:28:24;;;;;;;8.00;2.57;;;;;;;;;;5037023;28;20208;-78
2021/12/05 04:30:51;;;;;;;3.73;2.00;;;;;;;;;;5047816;28;20227;-78
2021/12/05 04:33:18;;;;;;;4.43;2.27;;;;;;;;;;5057647;28;20232;-78
2021/12/05 04:35:48;;;;;;;6.80;3.70;;;;;;;;;;5056419;28;20230;-78
2021/12/05 04:38:15;;;;;;;4.63;2.50;;;;;;;;;;5057712;28;20214;-78
2021/12/05 04:40:42;;;;;;;3.63;2.17;;;;;;;;;;5057065;28;20240;-78
2021/12/05 04:43:10;;;;;;;2.77;2.30;;;;;;;;;;5057046;28;20236;-77
2021/12/05 04:45:37;;;;;;;5.17;2.60;;;;;;;;;;5056961;28;20231;-77
2021/12/05 04:48:05;;;;;;;5.33;2.40;;;;;;;;;;5057068;28;20217;-78
2021/12/05 04:50:33;;;;;;;3.00;2.30;;;;;;;;;;5056056;28;20238;-78
2021/12/05 04:53:01;;;;;;;5.53;2.20;;;;;;;;;;5057834;28;20229;-78
2021/12/05 04:55:28;;;;;;;2.30;2.10;;;;;;;;;;5056545;28;20241;-78
2021/12/05 04:57:55;;;;;;;3.87;2.47;;;;;;;;;;5057027;28;20206;-78
2021/12/05 05:00:24;;;;;;;6.27;2.87;;;;;;;;;;5056329;28;20244;-78
2021/12/05 05:02:52;;;;;;;8.87;2.77;;;;;;;;;;5037247;28;20208;-78
2021/12/05 05:05:19;;;;;;;4.57;2.43;;;;;;;;;;5036344;28;20245;-78
2021/12/05 05:07:46;;;;;;;8.20;2.70;;;;;;;;;;5037760;28;20687;-78
2021/12/05 05:10:17;;;;;;;3.93;2.60;;;;;;;;;;5036878;28;20233;-78
2021/12/05 05:12:44;;;;;;;3.93;2.30;;;;;;;;;;5035216;28;20714;-79
2021/12/05 05:15:12;;;;;;;4.40;2.43;;;;;;;;;;5032779;28;20241;-79
2021/12/05 05:17:40;;;;;;;5.30;2.53;;;;;;;;;;5033606;28;20353;-79
2021/12/05 05:20:18;;;;;;;2.80;2.30;;;;;;;;;;5033177;28;20259;-79
2021/12/05 05:22:52;;;;;;;2.67;2.20;;;;;;;;;;5033499;28;20682;-79
2021/12/05 05:26:05;;;;;;;8.83;2.43;;;;;;;;;;5043173;28;20239;-79
2021/12/05 05:39:38;;;;;;;6.67;2.23;;;;;;;;;;5056812;28;20712;-78
2021/12/05 05:42:40;;;;;;;3.57;2.20;;;;;;;;;;5056740;28;20257;-78
2021/12/05 05:45:31;;;;;;;3.93;2.20;;;;;;;;;;5055212;28;20274;-78
2021/12/05 05:48:27;;;;;;;2.47;2.27;;;;;;;;;;5036707;28;20266;-78
2021/12/05 05:50:55;;;;;;;5.20;2.30;;;;;;;;;;5036607;28;20242;-79
2021/12/05 05:53:22;;;;;;;13.03;2.70;;;;;;;;;;5051158;28;20650;-78
2021/12/05 05:55:49;;;;;;;3.33;2.43;;;;;;;;;;5055582;28;20260;-78
2021/12/05 05:58:21;;;;;;;2.50;2.30;;;;;;;;;;5056337;28;20212;-78
2021/12/05 06:00:57;;;;;;;4.07;2.33;;;;;;;;;;5055891;28;20288;-78
2021/12/05 06:03:24;;;;;;;4.40;2.30;;;;;;;;;;5056115;28;20253;-78
2021/12/05 06:05:52;;;;;;;6.53;2.60;;;;;;;;;;5055796;28;20273;-79
2021/12/05 06:08:21;;;;;;;6.20;2.60;;;;;;;;;;5056106;28;20213;-78
2021/12/05 06:10:48;;;;;;;6.00;2.33;;;;;;;;;;5056224;28;20234;-78
2021/12/05 06:13:17;;;;;;;6.47;2.60;;;;;;;;;;5055462;28;20240;-78
2021/12/05 06:15:46;;;;;;;9.17;2.80;;;;;;;;;;5073024;23;20744;-79
2021/12/05 06:18:13;;;;;;;3.40;2.87;;;;;;;;;;5061183;28;20198;-79
2021/12/05 06:20:40;;;;;;;5.00;2.63;;;;;;;;;;5052595;28;20280;-79
2021/12/05 06:23:08;;;;;;;3.77;2.70;;;;;;;;;;5053328;28;20202;-79
2021/12/05 06:25:37;;;;;;;4.30;2.77;;;;;;;;;;5056117;28;20609;-79
2021/12/05 06:28:09;;;;;;;3.63;2.60;;;;;;;;;;5056632;28;20210;-78
2021/12/05 06:30:46;;;;;;;3.13;2.20;;;;;;;;;;5056160;28;20237;-78
2021/12/05 06:41:48;;;;;;;6.80;2.93;;;;;;;;;;5040340;28;20274;-79
2021/12/05 06:47:01;;;;;;;7.83;3.27;;;;;;;;;;5074506;28;20216;-79
2021/12/05 06:49:30;;;;;;;3.63;2.53;;;;;;;;;;5071839;28;20748;-79
2021/12/05 06:51:57;;;;;;;3.90;2.50;;;;;;;;;;5056720;28;20208;-80
2021/12/05 06:54:24;;;;;;;4.00;2.30;;;;;;;;;;5055775;28;20340;-79
2021/12/05 06:56:51;;;;;;;5.87;2.47;;;;;;;;;;5056313;28;20206;-79
2021/12/05 06:59:19;;;;;;;2.10;1.90;;;;;;;;;;5055940;28;20231;-79
2021/12/05 07:01:46;;;;;;;5.03;2.33;;;;;;;;;;5056485;28;20206;-79
2021/12/05 07:04:26;;;;;;;3.90;2.30;;;;;;;;;;5055926;28;20622;-79
2021/12/05 07:06:55;;;;;;;2.20;2.00;;;;;;;;;;5055879;28;20199;-78
2021/12/05 07:09:23;;;;;;;5.10;2.70;;;;;;;;;;5053682;28;20230;-79
2021/12/05 07:12:06;;;;;;;2.67;2.40;;;;;;;;;;5055566;28;20735;-79
2021/12/05 07:14:41;;;;;;;3.57;2.50;;;;;;;;;;5054464;28;20258;-78
2021/12/05 07:19:54;;;;;;;2.80;2.40;;;;;;;;;;5056080;28;20232;-79
2021/12/05 07:22:28;;;;;;;13.47;7.13;;;;;;;;;;5054710;28;20680;-79
2021/12/05 07:25:05;;;;;;;13.67;6.80;;;;;;;;;;5053533;28;20770;-79
2021/12/05 07:41:39;;;;;;;10.10;5.63;;;;;;;;;;5038353;28;20234;-79
2021/12/05 07:44:06;;;;;;;23.80;10.90;;;;;;;;;;5040795;28;20680;-79
2021/12/05 07:46:33;;;;;;;7.73;5.97;;;;;;;;;;5055520;28;20190;-80
2021/12/05 07:49:00;;;;;;;11.10;5.27;;;;;;;;;;5054456;28;20203;-80
2021/12/05 07:51:28;;;;;;;5.87;2.80;;;;;;;;;;5055863;28;20208;-80
2021/12/05 07:54:06;;;;;;;3.83;2.13;;;;;;;;;;5055004;28;20309;-80
2021/12/05 07:56:40;;;;;;;3.10;2.80;;;;;;;;;;5055241;28;20240;-80
2021/12/05 07:59:24;;;;;;;4.37;3.13;;;;;;;;;;5054424;28;20202;-80
2021/12/05 08:15:47;;;;;;;2.53;2.33;;;;;;;;;;5054057;28;20250;-79
2021/12/05 08:18:14;;;;;;;2.70;2.50;;;;;;;;;;5055174;28;20219;-79
2021/12/05 08:20:42;;;;;;;2.43;2.23;;;;;;;;;;5054704;28;20247;-79
2021/12/05 08:23:12;;;;;;;3.43;2.93;;;;;;;;;;5054553;28;20566;-79
2021/12/05 08:25:43;;;;;;;3.60;2.93;;;;;;;;;;5053614;28;20320;-79
2021/12/05 08:28:24;;;;;;;5.43;3.03;;;;;;;;;;5054872;28;20219;-79
2021/12/05 08:31:03;;;;;;;3.90;2.90;;;;;;;;;;5054033;28;20231;-79
2021/12/05 08:33:42;;;;;;;2.87;2.50;;;;;;;;;;5054828;28;20225;-79
2021/12/05 08:36:39;;;;;;;4.33;2.80;;;;;;;;;;5037276;28;20406;-79
2021/12/05 08:39:34;;;;;;;2.63;2.43;;;;;;;;;;5054211;28;20250;-79
2021/12/05 08:42:40;;;;;;;9.47;3.70;;;;;;;;;;5050804;28;20221;-79
2021/12/05 08:45:35;;;;;;;7.20;2.97;;;;;;;;;;5033469;28;20233;-79
2021/12/05 10:02:49;;;;;;;3.70;2.10;;;;;;;;;;5076428;28;20294;-79
2021/12/05 10:11:05;;;;;;;4.17;2.10;;;;;;;;;;5075852;28;20243;-79
2021/12/05 10:13:41;;;;;;;3.03;2.20;;;;;;;;;;5076523;28;20197;-79
2021/12/05 10:16:16;;;;;;;2.30;2.10;;;;;;;;;;5075498;28;20310;-79
2021/12/05 10:19:06;;;;;;;4.90;2.50;;;;;;;;;;5076327;28;20221;-79
2021/12/05 10:36:04;;;;;;;2.60;2.00;;;;;;;;;;5061968;28;20253;-80
2021/12/05 10:38:39;;;;;;;2.47;2.37;;;;;;;;;;5057100;28;20279;-80
2021/12/05 10:41:20;;;;;;;2.40;2.20;;;;;;;;;;5058928;28;20236;-80
2021/12/05 10:43:48;;;;;;;3.83;2.50;;;;;;;;;;5075594;28;20729;-80
2021/12/05 10:46:17;;;;;;;1.73;1.60;;;;;;;;;;5074895;28;20244;-79
2021/12/05 10:48:47;;;;;;;2.80;2.10;;;;;;;;;;5076044;28;20551;-79
2021/12/05 10:51:17;;;;;;;3.67;2.20;;;;;;;;;;5075283;28;20241;-79
2021/12/05 10:53:46;;;;;;;2.47;2.27;;;;;;;;;;5075366;28;20205;-79
2021/12/05 10:56:16;;;;;;;5.03;2.50;;;;;;;;;;5073681;28;20686;-79
2021/12/05 10:58:45;;;;;;;2.87;2.40;;;;;;;;;;5075254;28;20209;-79
2021/12/05 11:01:17;;;;;;;2.30;2.07;;;;;;;;;;5073177;28;20237;-79
2021/12/05 11:03:45;;;;;;;4.17;2.43;;;;;;;;;;5061987;28;20209;-79
2021/12/05 11:06:24;;;;;;;3.77;2.13;;;;;;;;;;5071722;28;20236;-79
2021/12/05 11:08:55;;;;;;;2.80;2.17;;;;;;;;;;5073980;28;20198;-79
2021/12/05 11:11:23;;;;;;;3.07;2.10;;;;;;;;;;5074577;28;20693;-79
2021/12/05 11:13:50;;;;;;;3.23;2.00;;;;;;;;;;5075135;28;20686;-80
2021/12/05 11:16:34;;;;;;;2.73;2.10;;;;;;;;;;5035004;28;20745;-79
2021/12/05 11:19:02;;;;;;;2.67;2.40;;;;;;;;;;5035499;28;20771;-80
2021/12/05 11:21:33;;;;;;;5.77;2.13;;;;;;;;;;5036084;28;20218;-80
2021/12/05 11:24:11;;;;;;;2.20;2.00;;;;;;;;;;5035865;28;20310;-80
2021/12/05 11:26:39;;;;;;;2.03;1.93;;;;;;;;;;5035970;28;20207;-80
2021/12/05 11:29:07;;;;;;;1.47;1.43;;;;;;;;;;5035433;28;20580;-79
2021/12/05 11:31:35;;;;;;;2.10;1.90;;;;;;;;;;5051705;28;20213;-79
2021/12/05 11:34:02;;;;;;;3.07;2.23;;;;;;;;;;5056076;28;20233;-80
2021/12/05 11:36:31;;;;;;;5.73;1.77;;;;;;;;;;5055306;28;20316;-79
2021/12/05 11:38:58;;;;;;;1.97;1.87;;;;;;;;;;5055998;28;20606;-80
2021/12/05 11:41:26;;;;;;;2.87;1.90;;;;;;;;;;5056156;28;20217;-80
2021/12/05 11:43:55;;;;;;;2.60;1.30;;;;;;;;;;5056838;28;20206;-80
2021/12/05 11:46:23;;;;;;;2.40;2.20;;;;;;;;;;5042260;28;20651;-79
2021/12/05 11:48:52;;;;;;;2.80;2.50;;;;;;;;;;5056442;28;20194;-79
2021/12/05 11:51:22;;;;;;;2.17;1.90;;;;;;;;;;5055155;28;20233;-80
2021/12/05 11:53:50;;;;;;;3.70;2.60;;;;;;;;;;5041701;28;20202;-80
2021/12/05 11:56:20;;;;;;;2.63;1.93;;;;;;;;;;5035994;28;20254;-80
2021/12/05 11:59:01;;;;;;;3.17;2.30;;;;;;;;;;5035394;28;20218;-79
2021/12/05 12:01:34;;;;;;;3.30;2.13;;;;;;;;;;5039843;28;20284;-80
2021/12/05 12:04:02;;;;;;;4.03;2.00;;;;;;;;;;5035041;28;20250;-79
2021/12/05 12:06:29;;;;;;;2.20;2.00;;;;;;;;;;5041486;28;20202;-79
2021/12/05 12:08:56;;;;;;;2.40;2.20;;;;;;;;;;5055493;28;20206;-79
2021/12/05 12:11:23;;;;;;;2.60;2.20;;;;;;;;;;5056412;28;20289;-80
2021/12/05 12:13:54;;;;;;;1.73;1.63;;;;;;;;;;5040526;28;20210;-80
2021/12/05 12:16:21;;;;;;;1.40;1.40;;;;;;;;;;5035610;28;20226;-79
2021/12/05 12:18:50;;;;;;;3.73;2.33;;;;;;;;;;5050562;28;20226;-79
2021/12/05 12:21:18;;;;;;;4.60;2.77;;;;;;;;;;5055265;28;20289;-79
2021/12/05 12:23:46;;;;;;;3.20;2.00;;;;;;;;;;5055859;28;20241;-80
2021/12/05 12:26:14;;;;;;;2.63;2.43;;;;;;;;;;5080897;23;20225;-76
2021/12/05 12:28:41;;;;;;;3.20;2.50;;;;;;;;;;5053041;28;20202;-76
2021/12/05 12:31:11;;;;;;;5.43;3.00;;;;;;;;;;5052497;28;20234;-76
2021/12/05 12:33:42;;;;;;;2.77;2.53;;;;;;;;;;5049475;28;20206;-76
2021/12/05 12:36:09;;;;;;;2.60;2.40;;;;;;;;;;5052297;28;20241;-76
2021/12/05 12:38:37;;;;;;;2.40;2.23;;;;;;;;;;5052715;28;20214;-73
2021/12/05 12:41:06;;;;;;;4.13;2.43;;;;;;;;;;5052152;28;20251;-75
2021/12/05 12:43:37;;;;;;;4.93;2.57;;;;;;;;;;5050065;28;20202;-74
2021/12/05 12:46:16;;;;;;;3.60;2.60;;;;;;;;;;5051493;28;20240;-73
2021/12/05 12:48:44;;;;;;;3.73;2.40;;;;;;;;;;5052135;28;20201;-73
2021/12/05 12:51:24;;;;;;;3.30;2.43;;;;;;;;;;5051821;28;20606;-75
2021/12/05 12:53:56;;;;;;;3.67;2.40;;;;;;;;;;5052367;28;20194;-74
2021/12/05 12:56:23;;;;;;;3.23;2.70;;;;;;;;;;5051608;28;20241;-74
2021/12/05 12:58:54;;;;;;;4.37;3.00;;;;;;;;;;5052279;28;20205;-74
2021/12/05 13:02:04;;;;;;;3.17;2.83;;;;;;;;;;5051808;28;20279;-74
2021/12/05 13:04:56;;;;;;;2.83;2.63;;;;;;;;;;5050318;28;20709;-74
2021/12/05 13:10:09;;;;;;;3.53;3.23;;;;;;;;;;5018455;28;20229;-74
2021/12/05 13:12:51;;;;;;;5.63;2.60;;;;;;;;;;5052252;28;20652;-74
2021/12/05 13:15:22;;;;;;;4.30;2.40;;;;;;;;;;5051247;28;20293;-74
2021/12/05 13:17:52;;;;;;;4.47;2.70;;;;;;;;;;5051930;28;20564;-74
2021/12/05 13:20:21;;;;;;;2.43;2.23;;;;;;;;;;5051591;28;20245;-75
2021/12/05 13:23:01;;;;;;;2.60;2.40;;;;;;;;;;5051906;28;20210;-75
2021/12/05 13:25:29;;;;;;;1.97;1.83;;;;;;;;;;5050989;28;20241;-74
2021/12/05 13:27:57;;;;;;;3.93;2.47;;;;;;;;;;5051839;28;20652;-75
2021/12/05 13:30:30;;;;;;;3.57;2.37;;;;;;;;;;5051280;28;20404;-75
2021/12/05 13:33:12;;;;;;;3.53;2.40;;;;;;;;;;5051530;28;20206;-75
2021/12/05 13:35:42;;;;;;;2.37;2.17;;;;;;;;;;5050630;28;20233;-75
2021/12/05 13:38:29;;;;;;;3.33;2.20;;;;;;;;;;5051756;28;20430;-74
2021/12/05 13:40:57;;;;;;;2.67;2.47;;;;;;;;;;5051047;28;20256;-75
2021/12/05 13:43:28;;;;;;;2.60;2.10;;;;;;;;;;5051858;28;20202;-74
2021/12/05 13:45:57;;;;;;;2.40;2.20;;;;;;;;;;5050708;28;20234;-75
2021/12/05 13:48:26;;;;;;;2.87;1.97;;;;;;;;;;5051153;28;20213;-75
2021/12/05 13:50:59;;;;;;;7.67;5.97;;;;;;;;;;5050999;28;20605;-74
2021/12/05 13:53:31;;;;;;;4.53;3.80;;;;;;;;;;5051471;28;20217;-77
2021/12/05 13:56:02;;;;;;;3.73;2.30;;;;;;;;;;5050684;28;20236;-77
2021/12/05 13:58:32;;;;;;;2.50;2.30;;;;;;;;;;5051701;28;20301;-77
2021/12/05 14:01:00;;;;;;;4.83;2.60;;;;;;;;;;5051247;28;20780;-74
2021/12/05 14:03:55;;;;;;;2.73;2.53;;;;;;;;;;5051258;28;20638;-74
2021/12/05 14:06:40;;;;;;;3.40;2.03;;;;;;;;;;5043648;28;20239;-77
2021/12/05 14:09:09;;;;;;;2.20;2.00;;;;;;;;;;5091144;28;20294;-77
2021/12/05 14:11:37;;;;;;;3.60;2.40;;;;;;;;;;5091831;28;20668;-77
2021/12/05 14:14:05;;;;;;;3.40;2.27;;;;;;;;;;5091178;28;20204;-77
2021/12/05 14:16:33;;;;;;;3.10;2.43;;;;;;;;;;5091400;28;20274;-77
2021/12/05 14:19:00;;;;;;;2.27;2.07;;;;;;;;;;5091739;28;20216;-77
2021/12/05 14:21:27;;;;;;;2.43;2.13;;;;;;;;;;5091660;28;20209;-75
2021/12/05 14:23:57;;;;;;;3.73;2.63;;;;;;;;;;5091586;28;20269;-74
2021/12/05 14:26:26;;;;;;;4.43;2.67;;;;;;;;;;5090784;28;20251;-74
2021/12/05 14:28:57;;;;;;;2.53;2.33;;;;;;;;;;5091486;28;20291;-74
2021/12/05 14:31:25;;;;;;;2.70;2.50;;;;;;;;;;5091291;28;20596;-74
2021/12/05 14:33:53;;;;;;;2.80;2.20;;;;;;;;;;5091288;28;20579;-74
2021/12/05 14:36:24;;;;;;;2.40;2.20;;;;;;;;;;5090338;28;20232;-75
2021/12/05 14:39:07;;;;;;;2.73;2.20;;;;;;;;;;5091569;28;20205;-74
2021/12/05 14:41:36;;;;;;;3.70;2.20;;;;;;;;;;5091018;28;20239;-75
2021/12/05 14:44:03;;;;;;;4.00;2.27;;;;;;;;;;5091356;28;20204;-74
2021/12/05 14:46:30;;;;;;;2.97;2.20;;;;;;;;;;5095189;28;20233;-74
2021/12/05 14:48:58;;;;;;;2.10;2.00;;;;;;;;;;5094225;28;20205;-74
2021/12/05 14:51:35;;;;;;;3.40;1.90;;;;;;;;;;5094831;28;20542;-74
2021/12/05 14:54:04;;;;;;;3.13;2.83;;;;;;;;;;5094996;28;20599;-75
2021/12/05 14:56:32;;;;;;;2.50;2.30;;;;;;;;;;5094674;28;20229;-74
2021/12/05 14:59:05;;;;;;;2.93;2.70;;;;;;;;;;5094099;28;20240;-74
2021/12/05 15:01:32;;;;;;;3.60;2.93;;;;;;;;;;5086022;28;20205;-74
2021/12/05 15:04:01;;;;;;;8.03;5.37;;;;;;;;;;5073668;28;20607;-74
2021/12/05 15:06:35;;;;;;;3.13;2.83;;;;;;;;;;5054063;28;20265;-74
2021/12/05 15:09:02;;;;;;;12.20;6.30;;;;;;;;;;5054162;28;20277;-74
2021/12/05 15:11:29;;;;;;;64.27;29.97;;;;;;;;;;5054295;28;20591;-74
2021/12/05 15:14:04;;;;;;;12.00;6.40;;;;;;;;;;5053735;28;20274;-74
2021/12/05 15:16:31;;;;;;;3.27;2.97;;;;;;;;;;5053561;28;20631;-75
2021/12/05 15:18:58;;;;;;;4.03;3.00;;;;;;;;;;5053730;28;20209;-74
2021/12/05 15:21:27;;;;;;;3.17;2.87;;;;;;;;;;5053864;28;20224;-74
2021/12/05 15:23:55;;;;;;;2.70;2.50;;;;;;;;;;5054373;28;20206;-74
2021/12/05 15:26:24;;;;;;;2.60;2.40;;;;;;;;;;5053400;28;20257;-74
2021/12/05 15:28:51;;;;;;;2.37;2.17;;;;;;;;;;5053927;28;20674;-74
2021/12/05 15:31:19;;;;;;;2.27;2.13;;;;;;;;;;5053265;28;20234;-74
2021/12/05 15:33:47;;;;;;;2.47;2.30;;;;;;;;;;5053666;28;20206;-74
2021/12/05 15:36:14;;;;;;;4.53;2.60;;;;;;;;;;5053305;28;20230;-74
2021/12/05 15:38:41;;;;;;;2.73;2.53;;;;;;;;;;5051823;28;20206;-74
2021/12/05 15:41:10;;;;;;;4.47;2.23;;;;;;;;;;5033367;28;20234;-75
2021/12/05 15:43:42;;;;;;;2.37;2.13;;;;;;;;;;5034262;28;20211;-74
2021/12/05 15:46:13;;;;;;;2.73;2.50;;;;;;;;;;5033079;28;20246;-74
2021/12/05 15:48:45;;;;;;;4.07;2.47;;;;;;;;;;5033750;28;20233;-75
2021/12/05 15:51:12;;;;;;;3.77;2.87;;;;;;;;;;5033252;28;20234;-75
2021/12/05 15:53:40;;;;;;;2.93;2.50;;;;;;;;;;5034011;28;20603;-74
2021/12/05 15:56:08;;;;;;;3.60;2.63;;;;;;;;;;5032466;28;20710;-76
2021/12/05 15:58:41;;;;;;;4.10;2.60;;;;;;;;;;5033341;28;20218;-76
2021/12/05 16:01:11;;;;;;;10.20;3.57;;;;;;;;;;5033119;28;20241;-76
2021/12/05 16:03:41;;;;;;;3.30;3.00;;;;;;;;;;5033282;28;20211;-77
2021/12/05 16:06:10;;;;;;;3.40;2.90;;;;;;;;;;5032814;28;20234;-77
2021/12/05 16:08:37;;;;;;;6.93;4.23;;;;;;;;;;5033738;28;20214;-78
2021/12/05 16:11:11;;;;;;;3.50;3.03;;;;;;;;;;5032974;28;20241;-77
2021/12/05 16:13:43;;;;;;;6.70;3.00;;;;;;;;;;5033617;28;20202;-77
2021/12/05 16:16:12;;;;;;;3.30;3.00;;;;;;;;;;5032584;28;20765;-77
2021/12/05 16:18:40;;;;;;;8.13;3.07;;;;;;;;;;5033403;28;20214;-78
2021/12/05 16:21:16;;;;;;;3.20;2.70;;;;;;;;;;5032727;28;20268;-77
2021/12/05 16:23:44;;;;;;;4.30;2.97;;;;;;;;;;5033308;28;20190;-77
2021/12/05 16:26:12;;;;;;;3.57;2.90;;;;;;;;;;5032606;28;20237;-77
2021/12/05 16:28:40;;;;;;;3.00;2.70;;;;;;;;;;5033042;28;20214;-77
2021/12/05 16:31:12;;;;;;;3.70;3.40;;;;;;;;;;5032643;28;20642;-77
2021/12/05 16:33:40;;;;;;;3.77;3.20;;;;;;;;;;5032985;28;20228;-77
2021/12/05 16:36:07;;;;;;;3.33;2.90;;;;;;;;;;5032158;28;20241;-77
2021/12/05 16:38:37;;;;;;;2.73;2.53;;;;;;;;;;5032860;28;20219;-77
2021/12/05 16:41:07;;;;;;;3.10;2.20;;;;;;;;;;5032094;28;20598;-77
2021/12/05 16:43:36;;;;;;;2.60;2.50;;;;;;;;;;5033283;28;20221;-77
2021/12/05 16:46:07;;;;;;;2.97;2.60;;;;;;;;;;5032240;28;20234;-77
2021/12/05 16:48:35;;;;;;;3.27;2.80;;;;;;;;;;5033149;28;20191;-77
2021/12/05 16:51:10;;;;;;;3.07;2.63;;;;;;;;;;5032314;28;20249;-77
2021/12/05 16:53:44;;;;;;;3.13;2.50;;;;;;;;;;5032670;28;20205;-77
2021/12/05 16:56:13;;;;;;;2.97;2.73;;;;;;;;;;5031610;28;20241;-77
2021/12/05 16:58:42;;;;;;;2.73;2.53;;;;;;;;;;5032376;28;20206;-77
2021/12/05 17:01:14;;;;;;;5.30;2.50;;;;;;;;;;5031885;28;20234;-77
2021/12/05 17:03:44;;;;;;;2.33;2.23;;;;;;;;;;5032632;28;20202;-77
2021/12/05 17:06:11;;;;;;;2.60;2.40;;;;;;;;;;5031595;28;20259;-77
2021/12/05 17:08:44;;;;;;;3.30;2.53;;;;;;;;;;5031946;28;20232;-77
2021/12/05 17:11:12;;;;;;;3.27;2.53;;;;;;;;;;5031845;28;20683;-77
2021/12/05 17:13:40;;;;;;;2.83;2.63;;;;;;;;;;5032522;28;20246;-77
2021/12/05 17:16:08;;;;;;;2.50;2.40;;;;;;;;;;5031483;28;20722;-77
2021/12/05 17:18:37;;;;;;;3.90;2.53;;;;;;;;;;5032275;28;20214;-77
2021/12/05 17:21:05;;;;;;;2.77;2.57;;;;;;;;;;5031911;28;20239;-77
2021/12/05 17:23:34;;;;;;;2.60;2.40;;;;;;;;;;5032101;28;20209;-77
2021/12/05 17:26:11;;;;;;;3.00;2.80;;;;;;;;;;5031778;28;20245;-77
2021/12/05 17:28:40;;;;;;;6.43;3.50;;;;;;;;;;5032342;28;20200;-78
2021/12/05 17:31:08;;;;;;;4.90;3.97;;;;;;;;;;5031466;28;20245;-78
2021/12/05 17:33:36;;;;;;;4.77;3.70;;;;;;;;;;5032088;28;20213;-77
2021/12/05 17:36:14;;;;;;;6.23;4.97;;;;;;;;;;5031115;28;20245;-77
2021/12/05 17:38:42;;;;;;;4.87;4.10;;;;;;;;;;5032043;28;20197;-77
2021/12/05 17:41:10;;;;;;;5.13;4.63;;;;;;;;;;5031291;28;20856;-77
2021/12/05 17:43:37;;;;;;;8.00;5.37;;;;;;;;;;5031928;28;20284;-78
2021/12/05 17:46:04;;;;;;;5.23;4.80;;;;;;;;;;5030864;28;20245;-77
2021/12/05 17:48:33;;;;;;;6.70;4.60;;;;;;;;;;5032085;28;20256;-78
2021/12/05 17:51:03;;;;;;;6.97;5.27;;;;;;;;;;5031248;28;20242;-77
2021/12/05 17:53:32;;;;;;;7.67;4.83;;;;;;;;;;5031906;28;20256;-77
2021/12/05 17:56:03;;;;;;;5.57;4.80;;;;;;;;;;5031025;28;20248;-78
2021/12/05 17:58:50;;;;;;;5.10;4.20;;;;;;;;;;5031763;28;20190;-77
2021/12/05 18:04:02;;;;;;;5.83;4.97;;;;;;;;;;5031104;28;20655;-77
2021/12/05 18:06:30;;;;;;;6.93;5.27;;;;;;;;;;5031056;28;20888;-77
2021/12/05 18:08:57;;;;;;;11.57;4.83;;;;;;;;;;5031108;28;20670;-77
2021/12/05 18:11:24;;;;;;;4.27;3.80;;;;;;;;;;5031609;28;20209;-77
2021/12/05 18:13:56;;;;;;;4.87;3.50;;;;;;;;;;5031584;28;20213;-77
2021/12/05 18:16:24;;;;;;;3.47;3.17;;;;;;;;;;5030688;28;20244;-77
2021/12/05 18:18:53;;;;;;;3.83;3.00;;;;;;;;;;5032980;28;20217;-78
2021/12/05 18:21:20;;;;;;;6.47;3.53;;;;;;;;;;5054663;28;20732;-77
2021/12/05 18:23:48;;;;;;;8.57;3.87;;;;;;;;;;5055481;28;20220;-77
2021/12/05 18:26:16;;;;;;;8.63;5.40;;;;;;;;;;5060202;28;20731;-78
2021/12/05 18:28:46;;;;;;;4.90;4.20;;;;;;;;;;5066467;28;20216;-79
2021/12/05 18:31:18;;;;;;;5.83;4.90;;;;;;;;;;5066350;28;20240;-78
2021/12/05 18:33:45;;;;;;;8.43;5.03;;;;;;;;;;5066355;28;20206;-78
2021/12/05 18:36:12;;;;;;;8.30;5.20;;;;;;;;;;5056541;28;20264;-79
2021/12/05 18:38:40;;;;;;;5.67;4.77;;;;;;;;;;5064611;28;20215;-79
2021/12/05 18:41:10;;;;;;;5.47;4.97;;;;;;;;;;5064891;28;20267;-79
2021/12/05 18:43:38;;;;;;;5.70;4.30;;;;;;;;;;5064230;28;20279;-79
2021/12/05 18:46:06;;;;;;;4.77;4.10;;;;;;;;;;5062632;28;20241;-78
2021/12/05 18:48:35;;;;;;;4.03;3.43;;;;;;;;;;5062860;28;20215;-78
2021/12/05 18:51:02;;;;;;;5.47;4.00;;;;;;;;;;5063107;28;20259;-78
2021/12/05 18:53:30;;;;;;;9.13;4.60;;;;;;;;;;5063613;28;20238;-78